sensor_id;sensor_type;location;lat;lon;timestamp;P1;durP1;ratioP1;P2;durP2;ratioP2
55254;SDS011;41118;44.634;11.182;2022-08-27T00:00:09;6.10;;;1.20;;
55254;SDS011;41118;44.634;11.182;2022-08-27T00:02:38;3.08;;;1.13;;
55254;SDS011;41118;44.634;11.182;2022-08-27T00:05:04;2.47;;;1.15;;
55254;SDS011;41118;44.634;11.182;2022-08-27T00:07:31;9.02;;;1.98;;
55254;SDS011;41118;44.634;11.182;2022-08-27T00:09:57;2.88;;;0.75;;
55254;SDS011;41118;44.634;11.182;2022-08-27T00:12:23;2.20;;;0.70;;
55254;SDS011;41118;44.634;11.182;2022-08-27T00:14:49;3.53;;;1.13;;
55254;SDS011;41118;44.634;11.182;2022-08-27T00:17:15;8.63;;;1.30;;
55254;SDS011;41118;44.634;11.182;2022-08-27T00:19:42;4.35;;;0.82;;
55254;SDS011;41118;44.634;11.182;2022-08-27T00:22:08;3.45;;;1.10;;
55254;SDS011;41118;44.634;11.182;2022-08-27T00:24:34;6.55;;;1.58;;
55254;SDS011;41118;44.634;11.182;2022-08-27T00:27:01;5.53;;;0.80;;
55254;SDS011;41118;44.634;11.182;2022-08-27T00:29:27;3.05;;;1.02;;
55254;SDS011;41118;44.634;11.182;2022-08-27T00:31:53;3.60;;;1.08;;
55254;SDS011;41118;44.634;11.182;2022-08-27T00:34:20;6.00;;;1.45;;
55254;SDS011;41118;44.634;11.182;2022-08-27T00:36:46;3.38;;;1.30;;
55254;SDS011;41118;44.634;11.182;2022-08-27T00:39:12;2.92;;;1.05;;
55254;SDS011;41118;44.634;11.182;2022-08-27T00:41:39;2.58;;;1.15;;
55254;SDS011;41118;44.634;11.182;2022-08-27T00:44:07;4.57;;;1.50;;
55254;SDS011;41118;44.634;11.182;2022-08-27T00:46:47;3.25;;;0.93;;
55254;SDS011;41118;44.634;11.182;2022-08-27T00:49:27;4.47;;;1.42;;
55254;SDS011;41118;44.634;11.182;2022-08-27T00:51:56;8.52;;;2.08;;
55254;SDS011;41118;44.634;11.182;2022-08-27T00:54:23;5.90;;;1.42;;
55254;SDS011;41118;44.634;11.182;2022-08-27T00:56:50;11.13;;;1.73;;
55254;SDS011;41118;44.634;11.182;2022-08-27T00:59:17;3.33;;;0.88;;
55254;SDS011;41118;44.634;11.182;2022-08-27T01:01:44;5.10;;;1.75;;
55254;SDS011;41118;44.634;11.182;2022-08-27T01:04:29;5.30;;;0.85;;
55254;SDS011;41118;44.634;11.182;2022-08-27T01:06:56;2.55;;;0.68;;
55254;SDS011;41118;44.634;11.182;2022-08-27T01:09:23;2.78;;;1.27;;
55254;SDS011;41118;44.634;11.182;2022-08-27T01:11:49;2.70;;;0.80;;
55254;SDS011;41118;44.634;11.182;2022-08-27T01:14:16;4.30;;;1.17;;
55254;SDS011;41118;44.634;11.182;2022-08-27T01:16:44;2.83;;;0.50;;
55254;SDS011;41118;44.634;11.182;2022-08-27T01:19:21;8.88;;;0.60;;
55254;SDS011;41118;44.634;11.182;2022-08-27T01:24:36;2.05;;;0.70;;
55254;SDS011;41118;44.634;11.182;2022-08-27T01:27:05;2.25;;;0.50;;
55254;SDS011;41118;44.634;11.182;2022-08-27T01:29:32;2.58;;;0.70;;
55254;SDS011;41118;44.634;11.182;2022-08-27T01:31:59;3.30;;;0.50;;
55254;SDS011;41118;44.634;11.182;2022-08-27T01:34:30;2.97;;;0.73;;
55254;SDS011;41118;44.634;11.182;2022-08-27T01:36:56;1.80;;;0.40;;
55254;SDS011;41118;44.634;11.182;2022-08-27T01:39:22;1.60;;;0.40;;
55254;SDS011;41118;44.634;11.182;2022-08-27T01:41:49;1.50;;;0.30;;
55254;SDS011;41118;44.634;11.182;2022-08-27T01:44:15;4.15;;;0.50;;
55254;SDS011;41118;44.634;11.182;2022-08-27T01:46:41;4.00;;;0.40;;
55254;SDS011;41118;44.634;11.182;2022-08-27T01:49:08;3.25;;;0.40;;
55254;SDS011;41118;44.634;11.182;2022-08-27T01:51:35;1.42;;;0.40;;
55254;SDS011;41118;44.634;11.182;2022-08-27T01:54:01;2.25;;;0.50;;
55254;SDS011;41118;44.634;11.182;2022-08-27T01:56:27;3.13;;;0.60;;
55254;SDS011;41118;44.634;11.182;2022-08-27T01:58:53;1.40;;;0.40;;
55254;SDS011;41118;44.634;11.182;2022-08-27T02:01:19;2.60;;;0.40;;
55254;SDS011;41118;44.634;11.182;2022-08-27T02:03:45;2.15;;;0.40;;
55254;SDS011;41118;44.634;11.182;2022-08-27T02:06:12;2.55;;;0.43;;
55254;SDS011;41118;44.634;11.182;2022-08-27T02:08:39;4.80;;;0.73;;
55254;SDS011;41118;44.634;11.182;2022-08-27T02:11:05;2.50;;;0.40;;
55254;SDS011;41118;44.634;11.182;2022-08-27T02:13:32;2.47;;;0.60;;
55254;SDS011;41118;44.634;11.182;2022-08-27T02:15:58;4.30;;;0.50;;
55254;SDS011;41118;44.634;11.182;2022-08-27T02:18:24;1.20;;;0.38;;
55254;SDS011;41118;44.634;11.182;2022-08-27T02:20:50;2.08;;;0.40;;
55254;SDS011;41118;44.634;11.182;2022-08-27T02:23:16;1.23;;;0.30;;
55254;SDS011;41118;44.634;11.182;2022-08-27T02:25:43;1.20;;;0.40;;
55254;SDS011;41118;44.634;11.182;2022-08-27T02:28:11;1.67;;;0.30;;
55254;SDS011;41118;44.634;11.182;2022-08-27T02:30:37;1.10;;;0.30;;
55254;SDS011;41118;44.634;11.182;2022-08-27T02:33:03;4.43;;;0.30;;
55254;SDS011;41118;44.634;11.182;2022-08-27T02:35:31;2.22;;;0.50;;
55254;SDS011;41118;44.634;11.182;2022-08-27T02:37:57;1.40;;;0.38;;
55254;SDS011;41118;44.634;11.182;2022-08-27T02:40:24;1.50;;;0.30;;
55254;SDS011;41118;44.634;11.182;2022-08-27T02:42:50;1.20;;;0.40;;
55254;SDS011;41118;44.634;11.182;2022-08-27T02:45:16;2.42;;;0.30;;
55254;SDS011;41118;44.634;11.182;2022-08-27T02:47:42;1.92;;;0.40;;
55254;SDS011;41118;44.634;11.182;2022-08-27T02:50:09;3.97;;;0.30;;
55254;SDS011;41118;44.634;11.182;2022-08-27T02:52:36;1.65;;;0.30;;
55254;SDS011;41118;44.634;11.182;2022-08-27T02:55:02;1.85;;;0.30;;
55254;SDS011;41118;44.634;11.182;2022-08-27T02:57:28;1.45;;;0.40;;
55254;SDS011;41118;44.634;11.182;2022-08-27T02:59:55;3.30;;;0.60;;
55254;SDS011;41118;44.634;11.182;2022-08-27T03:02:21;1.27;;;0.40;;
55254;SDS011;41118;44.634;11.182;2022-08-27T03:04:49;2.90;;;0.30;;
55254;SDS011;41118;44.634;11.182;2022-08-27T03:07:16;4.65;;;0.35;;
55254;SDS011;41118;44.634;11.182;2022-08-27T03:09:42;4.78;;;0.38;;
55254;SDS011;41118;44.634;11.182;2022-08-27T03:12:08;1.42;;;0.30;;
55254;SDS011;41118;44.634;11.182;2022-08-27T03:14:34;1.00;;;0.30;;
55254;SDS011;41118;44.634;11.182;2022-08-27T03:17:00;1.13;;;0.30;;
55254;SDS011;41118;44.634;11.182;2022-08-27T03:19:45;1.05;;;0.40;;
55254;SDS011;41118;44.634;11.182;2022-08-27T03:22:11;1.38;;;0.40;;
55254;SDS011;41118;44.634;11.182;2022-08-27T03:24:38;2.03;;;0.38;;
55254;SDS011;41118;44.634;11.182;2022-08-27T03:27:05;4.20;;;0.30;;
55254;SDS011;41118;44.634;11.182;2022-08-27T03:29:31;2.97;;;0.40;;
55254;SDS011;41118;44.634;11.182;2022-08-27T03:31:58;3.45;;;0.50;;
55254;SDS011;41118;44.634;11.182;2022-08-27T03:34:25;4.22;;;0.50;;
55254;SDS011;41118;44.634;11.182;2022-08-27T03:36:51;1.20;;;0.30;;
55254;SDS011;41118;44.634;11.182;2022-08-27T03:39:17;2.33;;;0.60;;
55254;SDS011;41118;44.634;11.182;2022-08-27T03:41:43;1.65;;;0.35;;
55254;SDS011;41118;44.634;11.182;2022-08-27T03:44:10;2.53;;;0.40;;
55254;SDS011;41118;44.634;11.182;2022-08-27T03:46:36;1.23;;;0.40;;
55254;SDS011;41118;44.634;11.182;2022-08-27T03:49:02;4.30;;;0.82;;
55254;SDS011;41118;44.634;11.182;2022-08-27T03:51:28;1.42;;;0.40;;
55254;SDS011;41118;44.634;11.182;2022-08-27T03:53:54;1.88;;;0.65;;
55254;SDS011;41118;44.634;11.182;2022-08-27T03:56:20;1.38;;;0.43;;
55254;SDS011;41118;44.634;11.182;2022-08-27T03:58:47;1.35;;;0.40;;
55254;SDS011;41118;44.634;11.182;2022-08-27T04:01:13;5.45;;;0.40;;
55254;SDS011;41118;44.634;11.182;2022-08-27T04:03:41;2.25;;;0.60;;
55254;SDS011;41118;44.634;11.182;2022-08-27T04:06:07;2.47;;;0.40;;
55254;SDS011;41118;44.634;11.182;2022-08-27T04:08:33;3.13;;;0.50;;
55254;SDS011;41118;44.634;11.182;2022-08-27T04:10:59;2.10;;;0.30;;
55254;SDS011;41118;44.634;11.182;2022-08-27T04:13:25;1.40;;;0.45;;
55254;SDS011;41118;44.634;11.182;2022-08-27T04:15:51;1.90;;;0.30;;
55254;SDS011;41118;44.634;11.182;2022-08-27T04:18:19;2.75;;;0.40;;
55254;SDS011;41118;44.634;11.182;2022-08-27T04:20:45;2.88;;;0.32;;
55254;SDS011;41118;44.634;11.182;2022-08-27T04:23:12;1.48;;;0.30;;
55254;SDS011;41118;44.634;11.182;2022-08-27T04:25:39;3.42;;;0.60;;
55254;SDS011;41118;44.634;11.182;2022-08-27T04:28:06;2.67;;;0.88;;
55254;SDS011;41118;44.634;11.182;2022-08-27T04:30:32;3.00;;;0.50;;
55254;SDS011;41118;44.634;11.182;2022-08-27T04:32:58;1.27;;;0.32;;
55254;SDS011;41118;44.634;11.182;2022-08-27T04:35:24;2.35;;;0.70;;
55254;SDS011;41118;44.634;11.182;2022-08-27T04:37:50;1.55;;;0.32;;
55254;SDS011;41118;44.634;11.182;2022-08-27T04:40:16;4.57;;;0.40;;
55254;SDS011;41118;44.634;11.182;2022-08-27T04:42:42;1.10;;;0.40;;
55254;SDS011;41118;44.634;11.182;2022-08-27T04:45:09;1.23;;;0.30;;
55254;SDS011;41118;44.634;11.182;2022-08-27T04:47:35;3.97;;;0.73;;
55254;SDS011;41118;44.634;11.182;2022-08-27T04:50:02;1.38;;;0.40;;
55254;SDS011;41118;44.634;11.182;2022-08-27T04:52:28;3.22;;;0.40;;
55254;SDS011;41118;44.634;11.182;2022-08-27T04:54:54;3.08;;;0.50;;
55254;SDS011;41118;44.634;11.182;2022-08-27T04:57:20;5.10;;;1.20;;
55254;SDS011;41118;44.634;11.182;2022-08-27T04:59:46;3.95;;;0.50;;
55254;SDS011;41118;44.634;11.182;2022-08-27T05:02:12;4.85;;;0.40;;
55254;SDS011;41118;44.634;11.182;2022-08-27T05:04:39;2.63;;;0.38;;
55254;SDS011;41118;44.634;11.182;2022-08-27T05:07:06;2.15;;;0.85;;
55254;SDS011;41118;44.634;11.182;2022-08-27T05:09:32;5.18;;;1.02;;
55254;SDS011;41118;44.634;11.182;2022-08-27T05:11:58;2.92;;;0.70;;
55254;SDS011;41118;44.634;11.182;2022-08-27T05:14:25;1.58;;;0.40;;
55254;SDS011;41118;44.634;11.182;2022-08-27T05:16:54;2.80;;;0.50;;
55254;SDS011;41118;44.634;11.182;2022-08-27T05:19:21;3.63;;;0.40;;
55254;SDS011;41118;44.634;11.182;2022-08-27T05:21:47;2.10;;;0.65;;
55254;SDS011;41118;44.634;11.182;2022-08-27T05:24:14;4.53;;;0.50;;
55254;SDS011;41118;44.634;11.182;2022-08-27T05:26:41;2.22;;;0.40;;
55254;SDS011;41118;44.634;11.182;2022-08-27T05:29:07;1.17;;;0.30;;
55254;SDS011;41118;44.634;11.182;2022-08-27T05:31:33;1.63;;;0.40;;
55254;SDS011;41118;44.634;11.182;2022-08-27T05:34:00;3.58;;;0.40;;
55254;SDS011;41118;44.634;11.182;2022-08-27T05:36:31;2.90;;;0.40;;
55254;SDS011;41118;44.634;11.182;2022-08-27T05:38:58;2.92;;;0.50;;
55254;SDS011;41118;44.634;11.182;2022-08-27T05:41:26;1.90;;;0.95;;
55254;SDS011;41118;44.634;11.182;2022-08-27T05:43:55;4.93;;;0.40;;
55254;SDS011;41118;44.634;11.182;2022-08-27T05:46:22;5.80;;;0.80;;
55254;SDS011;41118;44.634;11.182;2022-08-27T05:48:49;5.47;;;0.70;;
55254;SDS011;41118;44.634;11.182;2022-08-27T05:51:24;1.80;;;0.57;;
55254;SDS011;41118;44.634;11.182;2022-08-27T05:53:53;3.53;;;0.80;;
55254;SDS011;41118;44.634;11.182;2022-08-27T05:56:20;6.05;;;1.55;;
55254;SDS011;41118;44.634;11.182;2022-08-27T05:58:47;4.30;;;0.50;;
55254;SDS011;41118;44.634;11.182;2022-08-27T06:01:34;1.90;;;0.60;;
55254;SDS011;41118;44.634;11.182;2022-08-27T06:04:01;3.58;;;0.75;;
55254;SDS011;41118;44.634;11.182;2022-08-27T06:06:27;3.67;;;0.50;;
55254;SDS011;41118;44.634;11.182;2022-08-27T06:08:54;3.17;;;0.60;;
55254;SDS011;41118;44.634;11.182;2022-08-27T06:11:20;4.75;;;0.95;;
55254;SDS011;41118;44.634;11.182;2022-08-27T06:13:47;4.38;;;1.35;;
55254;SDS011;41118;44.634;11.182;2022-08-27T06:16:14;4.50;;;0.80;;
55254;SDS011;41118;44.634;11.182;2022-08-27T06:18:41;5.05;;;0.98;;
55254;SDS011;41118;44.634;11.182;2022-08-27T06:21:08;3.53;;;0.60;;
55254;SDS011;41118;44.634;11.182;2022-08-27T06:23:35;2.67;;;0.75;;
55254;SDS011;41118;44.634;11.182;2022-08-27T06:26:04;5.50;;;0.60;;
55254;SDS011;41118;44.634;11.182;2022-08-27T06:28:30;3.90;;;0.50;;
55254;SDS011;41118;44.634;11.182;2022-08-27T06:31:04;2.95;;;0.70;;
55254;SDS011;41118;44.634;11.182;2022-08-27T06:33:31;1.70;;;0.47;;
55254;SDS011;41118;44.634;11.182;2022-08-27T06:35:58;5.57;;;0.77;;
55254;SDS011;41118;44.634;11.182;2022-08-27T06:38:25;6.28;;;0.80;;
55254;SDS011;41118;44.634;11.182;2022-08-27T06:40:51;3.42;;;0.73;;
55254;SDS011;41118;44.634;11.182;2022-08-27T06:43:17;3.63;;;0.50;;
55254;SDS011;41118;44.634;11.182;2022-08-27T06:45:43;2.10;;;0.70;;
55254;SDS011;41118;44.634;11.182;2022-08-27T06:48:10;2.75;;;0.75;;
55254;SDS011;41118;44.634;11.182;2022-08-27T06:50:37;8.20;;;0.88;;
55254;SDS011;41118;44.634;11.182;2022-08-27T06:53:04;5.22;;;0.68;;
55254;SDS011;41118;44.634;11.182;2022-08-27T06:55:30;2.65;;;0.60;;
55254;SDS011;41118;44.634;11.182;2022-08-27T06:57:56;2.38;;;0.65;;
55254;SDS011;41118;44.634;11.182;2022-08-27T07:00:22;4.88;;;1.30;;
55254;SDS011;41118;44.634;11.182;2022-08-27T07:02:49;2.75;;;1.15;;
55254;SDS011;41118;44.634;11.182;2022-08-27T07:05:15;4.63;;;1.20;;
55254;SDS011;41118;44.634;11.182;2022-08-27T07:07:43;6.18;;;0.45;;
55254;SDS011;41118;44.634;11.182;2022-08-27T07:10:09;2.80;;;0.90;;
55254;SDS011;41118;44.634;11.182;2022-08-27T07:12:35;3.03;;;1.02;;
55254;SDS011;41118;44.634;11.182;2022-08-27T07:15:01;3.90;;;0.95;;
55254;SDS011;41118;44.634;11.182;2022-08-27T07:17:27;5.30;;;0.90;;
55254;SDS011;41118;44.634;11.182;2022-08-27T07:19:53;2.80;;;0.50;;
55254;SDS011;41118;44.634;11.182;2022-08-27T07:22:19;3.22;;;0.75;;
55254;SDS011;41118;44.634;11.182;2022-08-27T07:24:45;4.85;;;1.10;;
55254;SDS011;41118;44.634;11.182;2022-08-27T07:27:11;4.90;;;0.80;;
55254;SDS011;41118;44.634;11.182;2022-08-27T07:29:38;3.25;;;0.50;;
55254;SDS011;41118;44.634;11.182;2022-08-27T07:32:04;1.65;;;0.73;;
55254;SDS011;41118;44.634;11.182;2022-08-27T07:34:30;4.15;;;0.60;;
55254;SDS011;41118;44.634;11.182;2022-08-27T07:36:56;3.90;;;0.85;;
55254;SDS011;41118;44.634;11.182;2022-08-27T07:39:23;4.03;;;0.73;;
55254;SDS011;41118;44.634;11.182;2022-08-27T07:41:49;4.72;;;0.60;;
55254;SDS011;41118;44.634;11.182;2022-08-27T07:44:34;5.50;;;0.77;;
55254;SDS011;41118;44.634;11.182;2022-08-27T07:47:01;2.22;;;0.40;;
55254;SDS011;41118;44.634;11.182;2022-08-27T07:49:27;1.75;;;0.40;;
55254;SDS011;41118;44.634;11.182;2022-08-27T07:51:53;5.07;;;0.60;;
55254;SDS011;41118;44.634;11.182;2022-08-27T07:54:20;6.07;;;1.77;;
55254;SDS011;41118;44.634;11.182;2022-08-27T07:56:46;3.17;;;0.70;;
55254;SDS011;41118;44.634;11.182;2022-08-27T07:59:12;2.47;;;0.60;;
55254;SDS011;41118;44.634;11.182;2022-08-27T08:01:38;8.20;;;0.50;;
55254;SDS011;41118;44.634;11.182;2022-08-27T08:04:06;3.25;;;0.50;;
55254;SDS011;41118;44.634;11.182;2022-08-27T08:06:34;5.63;;;1.45;;
55254;SDS011;41118;44.634;11.182;2022-08-27T08:09:01;3.70;;;0.90;;
55254;SDS011;41118;44.634;11.182;2022-08-27T08:11:27;4.35;;;1.13;;
55254;SDS011;41118;44.634;11.182;2022-08-27T08:13:53;4.05;;;0.82;;
55254;SDS011;41118;44.634;11.182;2022-08-27T08:16:19;3.45;;;0.73;;
55254;SDS011;41118;44.634;11.182;2022-08-27T08:18:47;5.43;;;1.13;;
55254;SDS011;41118;44.634;11.182;2022-08-27T08:21:13;2.67;;;0.68;;
55254;SDS011;41118;44.634;11.182;2022-08-27T08:23:40;3.95;;;1.20;;
55254;SDS011;41118;44.634;11.182;2022-08-27T08:26:08;4.32;;;1.05;;
55254;SDS011;41118;44.634;11.182;2022-08-27T08:28:34;5.43;;;1.00;;
55254;SDS011;41118;44.634;11.182;2022-08-27T08:31:01;3.90;;;1.17;;
55254;SDS011;41118;44.634;11.182;2022-08-27T08:33:27;3.60;;;0.95;;
55254;SDS011;41118;44.634;11.182;2022-08-27T08:36:00;7.07;;;1.50;;
55254;SDS011;41118;44.634;11.182;2022-08-27T08:38:26;3.97;;;0.68;;
55254;SDS011;41118;44.634;11.182;2022-08-27T08:40:52;2.72;;;0.68;;
55254;SDS011;41118;44.634;11.182;2022-08-27T08:43:24;3.33;;;1.05;;
55254;SDS011;41118;44.634;11.182;2022-08-27T08:45:52;2.80;;;0.50;;
55254;SDS011;41118;44.634;11.182;2022-08-27T08:48:20;6.05;;;0.77;;
55254;SDS011;41118;44.634;11.182;2022-08-27T08:55:46;4.57;;;0.50;;
55254;SDS011;41118;44.634;11.182;2022-08-27T09:00:41;4.53;;;0.90;;
55254;SDS011;41118;44.634;11.182;2022-08-27T09:03:08;2.13;;;0.40;;
55254;SDS011;41118;44.634;11.182;2022-08-27T09:05:36;5.07;;;0.60;;
55254;SDS011;41118;44.634;11.182;2022-08-27T09:08:12;3.25;;;0.32;;
55254;SDS011;41118;44.634;11.182;2022-08-27T09:13:07;2.10;;;0.45;;
55254;SDS011;41118;44.634;11.182;2022-08-27T09:15:36;2.97;;;0.57;;
55254;SDS011;41118;44.634;11.182;2022-08-27T09:18:12;3.20;;;0.50;;
55254;SDS011;41118;44.634;11.182;2022-08-27T09:20:39;5.13;;;0.95;;
55254;SDS011;41118;44.634;11.182;2022-08-27T09:23:18;2.95;;;0.40;;
55254;SDS011;41118;44.634;11.182;2022-08-27T09:25:48;2.67;;;0.32;;
55254;SDS011;41118;44.634;11.182;2022-08-27T09:28:16;2.83;;;0.30;;
55254;SDS011;41118;44.634;11.182;2022-08-27T09:31:04;2.50;;;0.88;;
55254;SDS011;41118;44.634;11.182;2022-08-27T09:33:30;8.18;;;1.15;;
55254;SDS011;41118;44.634;11.182;2022-08-27T09:36:00;2.78;;;0.60;;
55254;SDS011;41118;44.634;11.182;2022-08-27T09:38:28;2.35;;;0.40;;
55254;SDS011;41118;44.634;11.182;2022-08-27T09:40:55;1.38;;;0.40;;
55254;SDS011;41118;44.634;11.182;2022-08-27T09:43:23;1.70;;;0.40;;
55254;SDS011;41118;44.634;11.182;2022-08-27T09:45:53;6.13;;;0.93;;
55254;SDS011;41118;44.634;11.182;2022-08-27T09:48:21;3.28;;;0.50;;
55254;SDS011;41118;44.634;11.182;2022-08-27T09:50:48;4.63;;;1.10;;
55254;SDS011;41118;44.634;11.182;2022-08-27T09:53:26;2.30;;;0.45;;
55254;SDS011;41118;44.634;11.182;2022-08-27T09:55:54;4.43;;;0.63;;
55254;SDS011;41118;44.634;11.182;2022-08-27T09:58:24;4.38;;;1.27;;
55254;SDS011;41118;44.634;11.182;2022-08-27T10:01:04;2.95;;;0.50;;
55254;SDS011;41118;44.634;11.182;2022-08-27T10:03:31;4.53;;;0.65;;
55254;SDS011;41118;44.634;11.182;2022-08-27T10:05:57;1.92;;;0.60;;
55254;SDS011;41118;44.634;11.182;2022-08-27T10:10:56;5.22;;;0.70;;
55254;SDS011;41118;44.634;11.182;2022-08-27T10:13:27;2.17;;;0.57;;
55254;SDS011;41118;44.634;11.182;2022-08-27T10:28:37;16.92;;;2.45;;
55254;SDS011;41118;44.634;11.182;2022-08-27T10:31:09;6.40;;;2.70;;
55254;SDS011;41118;44.634;11.182;2022-08-27T10:36:17;7.50;;;3.28;;
55254;SDS011;41118;44.634;11.182;2022-08-27T10:38:49;25.27;;;4.10;;
55254;SDS011;41118;44.634;11.182;2022-08-27T10:41:22;7.55;;;3.25;;
55254;SDS011;41118;44.634;11.182;2022-08-27T10:46:46;10.50;;;2.67;;
55254;SDS011;41118;44.634;11.182;2022-08-27T10:51:53;7.22;;;2.00;;
55254;SDS011;41118;44.634;11.182;2022-08-27T10:56:56;7.93;;;0.98;;
55254;SDS011;41118;44.634;11.182;2022-08-27T11:02:16;2.67;;;0.57;;
55254;SDS011;41118;44.634;11.182;2022-08-27T11:04:38;4.25;;;1.33;;
55254;SDS011;41118;44.634;11.182;2022-08-27T11:07:10;4.13;;;1.15;;
55254;SDS011;41118;44.634;11.182;2022-08-27T11:12:13;1.60;;;0.93;;
55254;SDS011;41118;44.634;11.182;2022-08-27T11:14:56;3.72;;;1.25;;
55254;SDS011;41118;44.634;11.182;2022-08-27T11:17:36;5.05;;;2.33;;
55254;SDS011;41118;44.634;11.182;2022-08-27T11:20:12;7.10;;;1.00;;
55254;SDS011;41118;44.634;11.182;2022-08-27T11:22:41;1.38;;;0.30;;
55254;SDS011;41118;44.634;11.182;2022-08-27T11:27:36;1.23;;;0.30;;
55254;SDS011;41118;44.634;11.182;2022-08-27T11:30:10;2.20;;;0.45;;
55254;SDS011;41118;44.634;11.182;2022-08-27T11:35:28;0.68;;;0.20;;
55254;SDS011;41118;44.634;11.182;2022-08-27T11:43:14;5.38;;;0.03;;
55254;SDS011;41118;44.634;11.182;2022-08-27T11:45:58;1.85;;;0.10;;
55254;SDS011;41118;44.634;11.182;2022-08-27T11:48:28;1.35;;;0.10;;
55254;SDS011;41118;44.634;11.182;2022-08-27T11:51:02;1.60;;;0.30;;
55254;SDS011;41118;44.634;11.182;2022-08-27T11:53:30;0.30;;;0.10;;
55254;SDS011;41118;44.634;11.182;2022-08-27T11:55:57;1.30;;;0.10;;
55254;SDS011;41118;44.634;11.182;2022-08-27T11:58:34;1.27;;;0.03;;
55254;SDS011;41118;44.634;11.182;2022-08-27T12:01:00;1.65;;;0.00;;
55254;SDS011;41118;44.634;11.182;2022-08-27T12:03:28;1.90;;;0.10;;
55254;SDS011;41118;44.634;11.182;2022-08-27T12:13:35;6.25;;;0.10;;
55254;SDS011;41118;44.634;11.182;2022-08-27T12:23:49;0.80;;;0.10;;
55254;SDS011;41118;44.634;11.182;2022-08-27T12:28:50;0.30;;;0.00;;
55254;SDS011;41118;44.634;11.182;2022-08-27T12:31:18;0.20;;;0.00;;
55254;SDS011;41118;44.634;11.182;2022-08-27T12:33:45;1.67;;;0.10;;
55254;SDS011;41118;44.634;11.182;2022-08-27T12:36:16;1.58;;;0.10;;
55254;SDS011;41118;44.634;11.182;2022-08-27T12:38:45;0.35;;;0.05;;
55254;SDS011;41118;44.634;11.182;2022-08-27T12:41:22;0.50;;;0.10;;
55254;SDS011;41118;44.634;11.182;2022-08-27T12:43:49;0.30;;;0.10;;
55254;SDS011;41118;44.634;11.182;2022-08-27T12:46:16;0.20;;;0.00;;
55254;SDS011;41118;44.634;11.182;2022-08-27T12:48:45;1.40;;;0.20;;
55254;SDS011;41118;44.634;11.182;2022-08-27T13:03:56;1.38;;;0.20;;
55254;SDS011;41118;44.634;11.182;2022-08-27T13:09:01;1.73;;;0.20;;
55254;SDS011;41118;44.634;11.182;2022-08-27T13:11:29;1.83;;;0.20;;
55254;SDS011;41118;44.634;11.182;2022-08-27T13:14:12;2.58;;;0.20;;
55254;SDS011;41118;44.634;11.182;2022-08-27T13:16:45;1.75;;;0.20;;
55254;SDS011;41118;44.634;11.182;2022-08-27T13:19:23;0.55;;;0.13;;
55254;SDS011;41118;44.634;11.182;2022-08-27T13:21:58;2.60;;;0.20;;
55254;SDS011;41118;44.634;11.182;2022-08-27T13:24:34;1.42;;;0.20;;
55254;SDS011;41118;44.634;11.182;2022-08-27T13:27:01;3.75;;;0.30;;
55254;SDS011;41118;44.634;11.182;2022-08-27T13:29:28;5.55;;;0.30;;
55254;SDS011;41118;44.634;11.182;2022-08-27T13:31:55;4.97;;;0.80;;
55254;SDS011;41118;44.634;11.182;2022-08-27T13:34:22;0.65;;;0.15;;
55254;SDS011;41118;44.634;11.182;2022-08-27T13:39:22;1.63;;;0.30;;
55254;SDS011;41118;44.634;11.182;2022-08-27T13:41:49;2.30;;;0.20;;
55254;SDS011;41118;44.634;11.182;2022-08-27T13:44:23;0.90;;;0.30;;
55254;SDS011;41118;44.634;11.182;2022-08-27T13:46:57;1.35;;;0.32;;
55254;SDS011;41118;44.634;11.182;2022-08-27T13:49:30;8.70;;;0.60;;
55254;SDS011;41118;44.634;11.182;2022-08-27T13:52:21;0.82;;;0.20;;
55254;SDS011;41118;44.634;11.182;2022-08-27T13:54:46;0.50;;;0.10;;
55254;SDS011;41118;44.634;11.182;2022-08-27T13:57:25;1.95;;;0.20;;
55254;SDS011;41118;44.634;11.182;2022-08-27T13:59:55;4.10;;;0.20;;
55254;SDS011;41118;44.634;11.182;2022-08-27T14:02:27;0.70;;;0.20;;
55254;SDS011;41118;44.634;11.182;2022-08-27T14:05:10;1.10;;;0.20;;
55254;SDS011;41118;44.634;11.182;2022-08-27T14:07:44;2.95;;;0.25;;
55254;SDS011;41118;44.634;11.182;2022-08-27T14:12:45;2.10;;;0.20;;
55254;SDS011;41118;44.634;11.182;2022-08-27T14:15:17;1.23;;;0.20;;
55254;SDS011;41118;44.634;11.182;2022-08-27T14:17:44;1.95;;;0.30;;
55254;SDS011;41118;44.634;11.182;2022-08-27T14:20:11;1.95;;;0.30;;
55254;SDS011;41118;44.634;11.182;2022-08-27T14:22:39;1.00;;;0.30;;
55254;SDS011;41118;44.634;11.182;2022-08-27T14:25:05;1.95;;;0.73;;
55254;SDS011;41118;44.634;11.182;2022-08-27T14:27:33;2.85;;;0.20;;
55254;SDS011;41118;44.634;11.182;2022-08-27T14:29:59;4.40;;;0.75;;
55254;SDS011;41118;44.634;11.182;2022-08-27T14:32:25;1.73;;;0.55;;
55254;SDS011;41118;44.634;11.182;2022-08-27T14:34:51;1.58;;;0.30;;
55254;SDS011;41118;44.634;11.182;2022-08-27T14:37:20;2.72;;;0.75;;
55254;SDS011;41118;44.634;11.182;2022-08-27T14:39:46;2.47;;;0.52;;
55254;SDS011;41118;44.634;11.182;2022-08-27T14:42:12;1.27;;;0.30;;
55254;SDS011;41118;44.634;11.182;2022-08-27T14:44:41;1.45;;;0.40;;
55254;SDS011;41118;44.634;11.182;2022-08-27T14:47:07;1.65;;;0.30;;
55254;SDS011;41118;44.634;11.182;2022-08-27T14:49:38;3.15;;;0.85;;
55254;SDS011;41118;44.634;11.182;2022-08-27T14:52:04;2.03;;;0.50;;
55254;SDS011;41118;44.634;11.182;2022-08-27T14:54:31;1.40;;;0.40;;
55254;SDS011;41118;44.634;11.182;2022-08-27T14:56:57;2.40;;;0.40;;
55254;SDS011;41118;44.634;11.182;2022-08-27T14:59:26;2.38;;;0.47;;
55254;SDS011;41118;44.634;11.182;2022-08-27T15:01:53;1.88;;;0.47;;
55254;SDS011;41118;44.634;11.182;2022-08-27T15:04:22;1.40;;;0.38;;
55254;SDS011;41118;44.634;11.182;2022-08-27T15:06:49;2.20;;;0.40;;
55254;SDS011;41118;44.634;11.182;2022-08-27T15:09:15;2.03;;;0.32;;
55254;SDS011;41118;44.634;11.182;2022-08-27T15:11:41;2.80;;;0.68;;
55254;SDS011;41118;44.634;11.182;2022-08-27T15:14:23;1.95;;;0.70;;
55254;SDS011;41118;44.634;11.182;2022-08-27T15:16:57;2.10;;;0.60;;
55254;SDS011;41118;44.634;11.182;2022-08-27T15:19:27;1.30;;;0.40;;
55254;SDS011;41118;44.634;11.182;2022-08-27T15:22:10;2.25;;;0.47;;
55254;SDS011;41118;44.634;11.182;2022-08-27T15:24:40;3.45;;;0.52;;
55254;SDS011;41118;44.634;11.182;2022-08-27T15:27:07;2.67;;;0.50;;
55254;SDS011;41118;44.634;11.182;2022-08-27T15:29:33;2.65;;;0.50;;
55254;SDS011;41118;44.634;11.182;2022-08-27T15:31:59;3.20;;;0.85;;
55254;SDS011;41118;44.634;11.182;2022-08-27T15:34:25;1.63;;;0.60;;
55254;SDS011;41118;44.634;11.182;2022-08-27T15:36:51;7.93;;;1.38;;
55254;SDS011;41118;44.634;11.182;2022-08-27T15:39:17;1.90;;;0.40;;
55254;SDS011;41118;44.634;11.182;2022-08-27T15:41:44;1.15;;;0.40;;
55254;SDS011;41118;44.634;11.182;2022-08-27T15:44:10;4.70;;;0.68;;
55254;SDS011;41118;44.634;11.182;2022-08-27T15:46:36;3.10;;;0.30;;
55254;SDS011;41118;44.634;11.182;2022-08-27T15:49:03;7.25;;;0.40;;
55254;SDS011;41118;44.634;11.182;2022-08-27T15:51:31;3.35;;;0.30;;
55254;SDS011;41118;44.634;11.182;2022-08-27T15:53:58;1.33;;;0.30;;
55254;SDS011;41118;44.634;11.182;2022-08-27T15:56:25;2.17;;;0.68;;
55254;SDS011;41118;44.634;11.182;2022-08-27T15:58:51;1.50;;;0.30;;
55254;SDS011;41118;44.634;11.182;2022-08-27T16:01:28;2.03;;;0.40;;
55254;SDS011;41118;44.634;11.182;2022-08-27T16:03:55;5.57;;;0.30;;
55254;SDS011;41118;44.634;11.182;2022-08-27T16:06:23;0.95;;;0.20;;
55254;SDS011;41118;44.634;11.182;2022-08-27T16:08:50;1.88;;;0.22;;
55254;SDS011;41118;44.634;11.182;2022-08-27T16:11:16;2.58;;;0.30;;